createdAt,value
2023-01-29T00:00:10.147Z,59.45
2023-01-29T00:00:51.931Z,56.45
2023-01-29T00:01:33.567Z,53.80
2023-01-29T00:02:15.240Z,57.05
2023-01-29T00:02:56.969Z,54.78
2023-01-29T00:03:38.693Z,53.55
2023-01-29T00:04:20.631Z,56.83
2023-01-29T00:05:16.628Z,55.33
2023-01-29T00:06:07.220Z,56.63
2023-01-29T00:06:48.985Z,59.05
2023-01-29T00:07:30.689Z,54.95
2023-01-29T00:08:12.384Z,57.15
2023-01-29T00:08:54.373Z,57.33
2023-01-29T00:09:36.038Z,52.80
2023-01-29T00:10:18.023Z,56.05
2023-01-29T00:11:07.218Z,56.20
2023-01-29T00:11:48.995Z,57.78
2023-01-29T00:12:30.715Z,52.83
2023-01-29T00:13:12.534Z,54.90
2023-01-29T00:13:54.533Z,53.90
2023-01-29T00:14:36.203Z,53.90
2023-01-29T00:15:18.737Z,51.03
2023-01-29T00:16:01.483Z,50.50
2023-01-29T00:16:43.224Z,54.25
2023-01-29T00:17:25.059Z,55.08
2023-01-29T00:18:06.751Z,52.10
2023-01-29T00:18:48.423Z,50.90
2023-01-29T00:19:30.101Z,53.65
2023-01-29T00:20:12.215Z,53.50
2023-01-29T00:20:53.897Z,57.60
2023-01-29T00:21:35.741Z,54.78
2023-01-29T00:22:17.410Z,54.70
2023-01-29T00:22:59.052Z,54.70
2023-01-29T00:23:40.973Z,53.70
2023-01-29T00:24:22.813Z,56.17
2023-01-29T00:25:04.822Z,53.58
2023-01-29T00:25:47.543Z,53.15
2023-01-29T00:26:29.501Z,52.42
2023-01-29T00:27:11.264Z,54.85
2023-01-29T00:27:52.904Z,55.13
2023-01-29T00:28:35.363Z,55.80
2023-01-29T00:29:17.885Z,56.90
2023-01-29T00:30:19.781Z,52.25
2023-01-29T00:31:13.067Z,52.83
2023-01-29T00:31:54.832Z,55.65
2023-01-29T00:32:36.767Z,56.85
2023-01-29T00:33:18.415Z,51.47
2023-01-29T00:34:00.080Z,50.30
2023-01-29T00:34:41.758Z,51.72
2023-01-29T00:35:23.470Z,50.70
2023-01-29T00:36:07.194Z,53.97
2023-01-29T00:36:48.997Z,51.20
2023-01-29T00:37:30.685Z,53.45
2023-01-29T00:38:12.337Z,52.30
2023-01-29T00:38:58.761Z,51.17
2023-01-29T00:39:47.889Z,51.97
2023-01-29T00:40:50.091Z,53.63
2023-01-29T00:41:51.223Z,52.53
2023-01-29T00:42:51.415Z,52.80
2023-01-29T00:43:51.906Z,54.03
2023-01-29T00:44:52.303Z,55.72
2023-01-29T00:45:36.617Z,52.95
2023-01-29T00:46:18.367Z,55.63
2023-01-29T00:47:00.309Z,53.90
2023-01-29T00:47:42.006Z,54.00
2023-01-29T00:48:23.734Z,52.63
2023-01-29T00:49:06.093Z,52.78
2023-01-29T00:49:47.827Z,52.40
2023-01-29T00:50:30.366Z,51.33
2023-01-29T00:51:12.048Z,56.10
2023-01-29T00:52:12.558Z,52.58
2023-01-29T00:52:54.646Z,50.10
2023-01-29T00:53:36.347Z,52.00
2023-01-29T00:54:18.070Z,54.30
2023-01-29T00:55:00.765Z,51.90
2023-01-29T00:55:42.547Z,53.45
2023-01-29T00:56:27.714Z,53.05
2023-01-29T00:57:09.577Z,55.53
2023-01-29T00:57:51.395Z,53.17
2023-01-29T00:58:35.763Z,52.03
2023-01-29T00:59:19.841Z,52.00
2023-01-29T01:00:03.745Z,51.72
2023-01-29T01:00:47.720Z,51.28
2023-01-29T01:01:48.295Z,55.03
2023-01-29T01:02:48.831Z,49.75
2023-01-29T01:03:32.652Z,52.25
2023-01-29T01:04:14.388Z,50.38
2023-01-29T01:04:56.207Z,52.80
2023-01-29T01:05:39.105Z,51.90
2023-01-29T01:06:20.866Z,52.25
2023-01-29T01:07:05.006Z,52.67
2023-01-29T01:07:48.862Z,52.90
2023-01-29T01:08:49.225Z,54.60
2023-01-29T01:09:49.662Z,53.63
2023-01-29T01:10:33.771Z,56.63
2023-01-29T01:11:17.747Z,55.78
2023-01-29T01:11:59.590Z,53.15
2023-01-29T01:12:41.351Z,49.55
2023-01-29T01:13:23.081Z,50.63
2023-01-29T01:14:04.812Z,52.65
2023-01-29T01:14:46.808Z,53.45
2023-01-29T01:15:31.911Z,52.90
2023-01-29T01:16:16.974Z,51.28
2023-01-29T01:16:59.108Z,48.42
2023-01-29T01:17:40.867Z,49.95
2023-01-29T01:18:22.891Z,47.92
2023-01-29T01:19:05.066Z,52.22
2023-01-29T01:19:46.861Z,53.72
2023-01-29T01:20:30.750Z,48.10
2023-01-29T01:21:12.446Z,48.47
2023-01-29T01:21:54.546Z,49.85
2023-01-29T01:22:36.269Z,53.50
2023-01-29T01:23:19.778Z,52.58
2023-01-29T01:24:01.935Z,52.42
2023-01-29T01:24:43.951Z,52.70
2023-01-29T01:25:27.063Z,53.28
2023-01-29T01:26:13.018Z,52.25
2023-01-29T01:26:54.784Z,54.08
2023-01-29T01:27:40.951Z,49.65
2023-01-29T01:28:24.838Z,50.70
2023-01-29T01:29:06.890Z,49.58
2023-01-29T01:29:48.953Z,55.65
2023-01-29T01:30:30.946Z,53.78
2023-01-29T01:31:14.177Z,54.63
2023-01-29T01:31:56.217Z,51.83
2023-01-29T01:32:38.947Z,49.97
2023-01-29T01:33:20.700Z,53.30
2023-01-29T01:34:02.483Z,54.95
2023-01-29T01:34:47.329Z,53.20
2023-01-29T01:35:29.719Z,49.80
2023-01-29T01:36:11.465Z,49.75
2023-01-29T01:36:54.879Z,50.28
2023-01-29T01:37:41.896Z,52.35
2023-01-29T01:38:25.955Z,51.67
2023-01-29T01:39:10.072Z,50.67
2023-01-29T01:39:51.992Z,53.33
2023-01-29T01:40:34.016Z,54.38
2023-01-29T01:41:18.336Z,50.00
2023-01-29T01:42:00.276Z,48.72
2023-01-29T01:42:41.983Z,52.40
2023-01-29T01:43:24.072Z,49.13
2023-01-29T01:44:06.647Z,49.88
2023-01-29T01:44:54.772Z,51.33
2023-01-29T01:45:37.129Z,49.67
2023-01-29T01:46:19.273Z,47.22
2023-01-29T01:47:01.964Z,50.95
2023-01-29T01:47:48.831Z,49.72
2023-01-29T01:48:33.002Z,50.38
2023-01-29T01:49:18.953Z,49.58
2023-01-29T01:50:09.417Z,46.90
2023-01-29T01:50:53.863Z,49.03
2023-01-29T01:51:40.433Z,50.33
2023-01-29T01:52:22.534Z,51.95
2023-01-29T01:53:08.975Z,50.50
2023-01-29T01:54:02.593Z,54.15
2023-01-29T01:54:44.873Z,49.33
2023-01-29T01:55:29.401Z,50.22
2023-01-29T01:56:26.868Z,48.70
2023-01-29T01:57:17.936Z,50.03
2023-01-29T01:58:24.126Z,48.80
2023-01-29T01:59:12.037Z,45.00
2023-01-29T02:00:01.377Z,57.05
2023-01-29T02:00:43.221Z,48.75
2023-01-29T02:01:30.104Z,49.83
2023-01-29T02:02:30.804Z,49.13
2023-01-29T02:03:31.903Z,52.22
2023-01-29T02:04:42.303Z,48.67
2023-01-29T02:05:43.623Z,48.42
2023-01-29T02:06:44.090Z,47.92
2023-01-29T02:07:44.448Z,50.58
2023-01-29T02:09:01.864Z,48.55
2023-01-29T02:10:01.964Z,48.58
2023-01-29T02:10:47.009Z,50.92
2023-01-29T02:11:31.355Z,52.47
2023-01-29T02:12:16.207Z,49.83
2023-01-29T02:13:00.053Z,48.30
2023-01-29T02:13:45.338Z,46.20
2023-01-29T02:14:27.157Z,48.28
2023-01-29T02:15:09.876Z,47.28
2023-01-29T02:15:51.707Z,51.63
2023-01-29T02:16:35.585Z,50.38
2023-01-29T02:17:19.549Z,50.40
2023-01-29T02:18:01.740Z,50.28
2023-01-29T02:18:43.560Z,50.88
2023-01-29T02:19:46.945Z,48.80
2023-01-29T02:20:34.469Z,48.88
2023-01-29T02:21:36.456Z,46.00
2023-01-29T02:22:50.068Z,51.03
2023-01-29T02:23:46.608Z,45.55
2023-01-29T02:25:12.132Z,50.97
2023-01-29T02:26:51.250Z,49.63
2023-01-29T02:27:54.293Z,47.22
2023-01-29T02:28:51.017Z,47.47
2023-01-29T02:29:52.687Z,48.95
2023-01-29T02:30:47.124Z,47.40
2023-01-29T02:31:43.172Z,50.80
2023-01-29T02:32:40.444Z,49.50
2023-01-29T02:33:52.622Z,51.30
2023-01-29T02:35:06.188Z,49.80
2023-01-29T02:36:04.017Z,49.40
2023-01-29T02:36:50.469Z,50.88
2023-01-29T02:38:00.171Z,52.40
2023-01-29T02:38:58.437Z,49.58
2023-01-29T02:39:58.179Z,51.58
2023-01-29T02:40:49.338Z,49.58
2023-01-29T02:41:58.810Z,48.85
2023-01-29T02:43:22.574Z,48.28
2023-01-29T02:44:12.657Z,52.63
2023-01-29T02:45:11.415Z,47.67
2023-01-29T02:46:16.387Z,44.80
2023-01-29T02:47:15.321Z,47.30
2023-01-29T02:47:59.195Z,50.90
2023-01-29T02:48:59.355Z,51.58
2023-01-29T02:50:08.393Z,47.28
2023-01-29T02:51:00.305Z,47.75
2023-01-29T02:51:50.278Z,49.55
2023-01-29T02:52:43.295Z,49.28
2023-01-29T02:53:27.044Z,45.70
2023-01-29T02:54:20.517Z,48.35
2023-01-29T02:55:08.728Z,47.35
2023-01-29T02:56:12.554Z,49.33
2023-01-29T02:57:10.099Z,52.95
2023-01-29T02:57:56.733Z,51.58
2023-01-29T02:58:47.755Z,46.15
2023-01-29T02:59:35.558Z,47.55
2023-01-29T03:00:23.464Z,54.63
2023-01-29T03:01:30.340Z,52.08
2023-01-29T03:02:17.294Z,48.33
2023-01-29T03:03:23.535Z,48.63
2023-01-29T03:04:11.820Z,48.65
2023-01-29T03:05:03.711Z,49.80
2023-01-29T03:06:02.491Z,51.60
2023-01-29T03:07:00.469Z,52.53
2023-01-29T03:07:52.010Z,48.05
2023-01-29T03:08:45.584Z,49.35
2023-01-29T03:09:36.339Z,50.63
2023-01-29T03:10:50.241Z,51.40
2023-01-29T03:11:39.644Z,47.75
2023-01-29T03:12:33.911Z,53.75
2023-01-29T03:13:59.887Z,51.08
2023-01-29T03:15:01.659Z,47.47
2023-01-29T03:15:53.556Z,46.50
2023-01-29T03:16:43.929Z,48.10
2023-01-29T03:17:31.594Z,52.90
2023-01-29T03:18:19.824Z,48.75
2023-01-29T03:19:07.690Z,50.33
2023-01-29T03:19:49.724Z,50.38
2023-01-29T03:20:40.796Z,50.92
2023-01-29T03:21:56.647Z,54.85
2023-01-29T03:22:40.532Z,49.45
2023-01-29T03:23:47.390Z,49.00
2023-01-29T03:25:07.824Z,50.35
2023-01-29T03:26:13.287Z,48.80
2023-01-29T03:27:14.731Z,50.15
2023-01-29T03:28:20.449Z,48.67
2023-01-29T03:29:23.585Z,50.38
2023-01-29T03:30:27.482Z,54.60
2023-01-29T03:31:30.907Z,51.58
2023-01-29T03:32:16.031Z,49.75
2023-01-29T03:33:00.886Z,46.25
2023-01-29T03:34:00.314Z,50.92
2023-01-29T03:34:46.709Z,49.65
2023-01-29T03:35:36.530Z,48.72
2023-01-29T03:36:37.635Z,47.92
2023-01-29T03:37:26.033Z,45.05
2023-01-29T03:38:10.155Z,49.88
2023-01-29T03:38:51.917Z,51.47
2023-01-29T03:39:34.370Z,45.13
2023-01-29T03:40:17.020Z,47.10
2023-01-29T03:41:19.458Z,48.92
2023-01-29T03:42:17.029Z,49.35
2023-01-29T03:43:13.493Z,48.75
2023-01-29T03:44:10.343Z,50.40
2023-01-29T03:45:02.070Z,46.30
2023-01-29T03:46:01.565Z,48.50
2023-01-29T03:46:56.566Z,46.50
2023-01-29T03:48:07.967Z,47.05
2023-01-29T03:49:10.334Z,47.92
2023-01-29T03:50:03.816Z,49.03
2023-01-29T03:51:06.348Z,52.78
2023-01-29T03:51:58.136Z,48.03
2023-01-29T03:53:12.573Z,48.67
2023-01-29T03:54:12.749Z,50.08
2023-01-29T03:55:10.909Z,46.15
2023-01-29T03:56:07.170Z,51.20
2023-01-29T03:56:51.612Z,49.40
2023-01-29T03:57:54.834Z,48.25
2023-01-29T03:59:17.698Z,50.20
2023-01-29T04:00:02.102Z,51.55
2023-01-29T04:01:11.621Z,50.20
2023-01-29T04:02:00.521Z,48.40
2023-01-29T04:03:12.673Z,47.50
2023-01-29T04:03:59.610Z,52.10
2023-01-29T04:04:47.646Z,48.97
2023-01-29T04:05:39.023Z,45.42
2023-01-29T04:06:27.424Z,46.17
2023-01-29T04:07:15.409Z,49.13
2023-01-29T04:08:04.615Z,46.92
2023-01-29T04:09:02.914Z,50.53
2023-01-29T04:09:55.488Z,46.67
2023-01-29T04:10:40.220Z,47.00
2023-01-29T04:11:25.660Z,43.80
2023-01-29T04:12:12.154Z,43.75
2023-01-29T04:13:02.741Z,47.00
2023-01-29T04:13:48.426Z,49.78
2023-01-29T04:14:31.938Z,46.53
2023-01-29T04:15:16.120Z,46.42
2023-01-29T04:16:00.974Z,48.30
2023-01-29T04:16:48.520Z,47.10
2023-01-29T04:17:41.787Z,44.22
2023-01-29T04:18:24.864Z,44.85
2023-01-29T04:19:06.779Z,46.78
2023-01-29T04:19:48.849Z,47.05
2023-01-29T04:20:30.571Z,48.83
2023-01-29T04:21:13.096Z,47.28
2023-01-29T04:22:02.533Z,49.65
2023-01-29T04:22:47.546Z,51.03
2023-01-29T04:23:29.399Z,46.50
2023-01-29T04:24:15.877Z,44.70
2023-01-29T04:25:02.532Z,43.00
2023-01-29T04:25:52.632Z,48.83
2023-01-29T04:26:53.013Z,43.50
2023-01-29T04:27:43.298Z,47.25
2023-01-29T04:28:38.054Z,48.13
2023-01-29T04:29:46.650Z,43.92
2023-01-29T04:30:57.404Z,46.10
2023-01-29T04:32:13.849Z,46.83
2023-01-29T04:33:29.527Z,47.60
2023-01-29T04:34:28.514Z,44.30
2023-01-29T04:35:32.871Z,45.13
2023-01-29T04:36:46.489Z,50.20
2023-01-29T04:37:32.804Z,44.78
2023-01-29T04:38:33.776Z,43.30
2023-01-29T04:39:51.638Z,49.90
2023-01-29T04:40:44.352Z,47.45
2023-01-29T04:41:40.955Z,44.47
2023-01-29T04:42:25.264Z,45.60
2023-01-29T04:43:15.747Z,45.17
2023-01-29T04:44:16.165Z,46.60
2023-01-29T04:45:32.892Z,46.35
2023-01-29T04:46:25.808Z,43.88
2023-01-29T04:47:30.018Z,46.17
2023-01-29T04:48:19.743Z,46.90
2023-01-29T04:49:16.688Z,47.97
2023-01-29T04:50:16.545Z,46.55
2023-01-29T04:51:12.990Z,44.25
2023-01-29T04:52:10.268Z,45.38
2023-01-29T04:52:56.638Z,44.40
2023-01-29T04:53:53.884Z,48.92
2023-01-29T04:55:06.066Z,47.90
2023-01-29T04:55:57.289Z,46.33
2023-01-29T04:56:56.990Z,47.28
2023-01-29T04:57:55.311Z,50.78
2023-01-29T04:58:40.007Z,46.65
2023-01-29T04:59:31.830Z,49.47
2023-01-29T05:00:21.711Z,46.55
2023-01-29T05:01:06.779Z,45.25
2023-01-29T05:01:49.662Z,44.80
2023-01-29T05:02:34.470Z,45.05
2023-01-29T05:03:16.881Z,46.28
2023-01-29T05:04:02.281Z,48.28
2023-01-29T05:04:45.462Z,45.80
2023-01-29T05:05:29.011Z,43.70
2023-01-29T05:06:11.896Z,42.97
2023-01-29T05:06:54.024Z,48.13
2023-01-29T05:07:38.575Z,46.38
2023-01-29T05:08:24.070Z,42.67
2023-01-29T05:09:08.164Z,47.15
2023-01-29T05:09:51.205Z,49.65
2023-01-29T05:10:37.210Z,48.20
2023-01-29T05:11:20.001Z,47.20
2023-01-29T05:12:03.125Z,44.10
2023-01-29T05:12:52.121Z,46.53
2023-01-29T05:13:39.416Z,47.78
2023-01-29T05:14:23.383Z,49.03
2023-01-29T05:15:11.733Z,45.42
2023-01-29T05:15:58.827Z,44.30
2023-01-29T05:16:49.952Z,46.88
2023-01-29T05:17:32.091Z,48.60
2023-01-29T05:18:14.164Z,48.47
2023-01-29T05:18:56.052Z,47.53
2023-01-29T05:19:40.170Z,44.35
2023-01-29T05:20:22.112Z,48.53
2023-01-29T05:21:07.413Z,46.97
2023-01-29T05:21:50.369Z,44.08
2023-01-29T05:22:32.438Z,44.70
2023-01-29T05:23:18.529Z,46.22
2023-01-29T05:24:16.455Z,46.70
2023-01-29T05:24:58.323Z,48.03
2023-01-29T05:25:40.108Z,51.65
2023-01-29T05:26:42.847Z,47.05
2023-01-29T05:27:50.534Z,46.55
2023-01-29T05:28:32.501Z,47.55
2023-01-29T05:29:17.085Z,48.95
2023-01-29T05:29:59.042Z,48.72
2023-01-29T05:30:41.130Z,46.60
2023-01-29T05:31:25.022Z,46.35
2023-01-29T05:32:06.942Z,46.65
2023-01-29T05:32:49.086Z,45.22
2023-01-29T05:33:31.988Z,47.60
2023-01-29T05:34:14.093Z,44.95
2023-01-29T05:34:55.884Z,45.35
2023-01-29T05:35:37.667Z,45.83
2023-01-29T05:36:22.154Z,50.25
2023-01-29T05:37:04.070Z,49.03
2023-01-29T05:37:46.048Z,45.88
2023-01-29T05:38:27.973Z,44.72
2023-01-29T05:39:12.120Z,44.92
2023-01-29T05:39:54.100Z,44.72
2023-01-29T05:40:36.454Z,44.90
2023-01-29T05:41:18.248Z,45.72
2023-01-29T05:42:00.065Z,45.45
2023-01-29T05:42:42.003Z,44.17
2023-01-29T05:43:25.242Z,46.00
2023-01-29T05:44:07.079Z,46.40
2023-01-29T05:44:49.090Z,49.92
2023-01-29T05:45:32.055Z,46.75
2023-01-29T05:46:14.094Z,45.58
2023-01-29T05:46:56.099Z,48.03
2023-01-29T05:47:37.893Z,46.35
2023-01-29T05:48:22.242Z,46.58
2023-01-29T05:49:07.157Z,45.53
2023-01-29T05:49:49.122Z,45.47
2023-01-29T05:50:31.031Z,47.40
2023-01-29T05:51:15.167Z,45.45
2023-01-29T05:51:57.018Z,44.35
2023-01-29T05:52:39.108Z,46.75
2023-01-29T05:53:20.986Z,47.20
2023-01-29T05:54:05.238Z,46.03
2023-01-29T05:54:47.131Z,48.08
2023-01-29T05:55:32.134Z,46.15
2023-01-29T05:56:14.094Z,47.60
2023-01-29T05:56:56.098Z,46.08
2023-01-29T05:57:39.352Z,49.65
2023-01-29T05:58:21.521Z,46.05
2023-01-29T05:59:03.346Z,46.67
2023-01-29T05:59:45.130Z,50.38
2023-01-29T06:00:27.044Z,48.00
2023-01-29T06:01:15.181Z,45.17
2023-01-29T06:01:58.282Z,45.63
2023-01-29T06:02:40.441Z,44.92
2023-01-29T06:03:22.428Z,46.97
2023-01-29T06:04:04.608Z,45.38
2023-01-29T06:04:46.662Z,47.80
2023-01-29T06:05:28.513Z,48.47
2023-01-29T06:06:10.451Z,48.33
2023-01-29T06:06:52.421Z,48.22
2023-01-29T06:07:34.531Z,52.95
2023-01-29T06:08:16.493Z,52.00
2023-01-29T06:08:58.433Z,50.13
2023-01-29T06:09:40.193Z,51.00
2023-01-29T06:10:22.100Z,51.10
2023-01-29T06:11:04.688Z,48.30
2023-01-29T06:11:46.654Z,44.72
2023-01-29T06:12:28.421Z,46.50
2023-01-29T06:13:10.214Z,49.95
2023-01-29T06:13:52.417Z,49.33
2023-01-29T06:14:34.225Z,48.03
2023-01-29T06:15:16.173Z,47.60
2023-01-29T06:16:00.340Z,45.80
2023-01-29T06:16:42.206Z,48.22
2023-01-29T06:17:24.254Z,48.95
2023-01-29T06:18:06.320Z,49.05
2023-01-29T06:18:50.163Z,47.17
2023-01-29T06:19:31.936Z,51.17
2023-01-29T06:20:14.364Z,49.05
2023-01-29T06:21:01.104Z,46.53
2023-01-29T06:21:45.151Z,50.47
2023-01-29T06:22:27.225Z,46.30
2023-01-29T06:23:09.294Z,48.45
2023-01-29T06:23:53.834Z,48.33
2023-01-29T06:24:38.468Z,45.53
2023-01-29T06:25:20.252Z,45.72
2023-01-29T06:26:07.547Z,50.22
2023-01-29T06:26:49.698Z,46.92
2023-01-29T06:27:31.679Z,44.03
2023-01-29T06:28:13.426Z,45.30
2023-01-29T06:28:55.211Z,45.10
2023-01-29T06:29:36.993Z,49.30
2023-01-29T06:30:18.935Z,50.45
2023-01-29T06:31:23.366Z,47.67
2023-01-29T06:32:05.564Z,49.63
2023-01-29T06:32:47.573Z,50.63
2023-01-29T06:33:29.830Z,49.20
2023-01-29T06:34:11.718Z,48.20
2023-01-29T06:34:53.579Z,51.10
2023-01-29T06:35:35.281Z,51.80
2023-01-29T06:36:17.223Z,49.22
2023-01-29T06:36:58.970Z,47.83
2023-01-29T06:37:41.263Z,47.38
2023-01-29T06:38:23.543Z,46.55
2023-01-29T06:39:05.301Z,50.75
2023-01-29T06:39:47.195Z,44.88
2023-01-29T06:40:29.332Z,49.20
2023-01-29T06:41:15.439Z,47.90
2023-01-29T06:41:57.142Z,44.58
2023-01-29T06:42:38.882Z,45.23
2023-01-29T06:43:21.681Z,43.58
2023-01-29T06:44:03.664Z,47.00
2023-01-29T06:44:45.436Z,46.45
2023-01-29T06:45:27.197Z,46.67
2023-01-29T06:46:08.955Z,46.22
2023-01-29T06:46:50.666Z,48.83
2023-01-29T06:47:32.495Z,46.90
2023-01-29T06:48:14.342Z,43.05
2023-01-29T06:48:59.560Z,44.80
2023-01-29T06:49:41.278Z,49.10
2023-01-29T06:50:25.587Z,47.38
2023-01-29T06:51:09.398Z,46.53
2023-01-29T06:51:51.293Z,47.28
2023-01-29T06:52:35.205Z,47.72
2023-01-29T06:53:20.379Z,43.72
2023-01-29T06:54:02.318Z,46.78
2023-01-29T06:54:44.387Z,50.85
2023-01-29T06:55:26.347Z,46.38
2023-01-29T06:56:10.913Z,44.28
2023-01-29T06:56:52.866Z,46.75
2023-01-29T06:57:34.907Z,47.42
2023-01-29T06:58:16.864Z,45.75
2023-01-29T06:58:58.668Z,46.55
2023-01-29T06:59:40.423Z,43.28
2023-01-29T07:00:22.555Z,46.80
2023-01-29T07:01:05.615Z,47.67
2023-01-29T07:01:47.615Z,47.47
2023-01-29T07:02:29.863Z,45.15
2023-01-29T07:03:11.850Z,41.35
2023-01-29T07:03:53.688Z,45.53
2023-01-29T07:04:36.738Z,48.00
2023-01-29T07:05:18.503Z,44.05
2023-01-29T07:06:00.874Z,44.08
2023-01-29T07:06:43.414Z,48.35
2023-01-29T07:07:27.513Z,49.20
2023-01-29T07:08:12.395Z,43.10
2023-01-29T07:08:54.503Z,46.22
2023-01-29T07:09:36.417Z,45.25
2023-01-29T07:10:20.559Z,45.38
2023-01-29T07:11:05.339Z,48.50
2023-01-29T07:11:47.948Z,45.88
2023-01-29T07:12:29.987Z,45.05
2023-01-29T07:13:11.910Z,44.42
2023-01-29T07:13:53.788Z,47.05
2023-01-29T07:14:35.640Z,50.45
2023-01-29T07:15:23.417Z,47.05
2023-01-29T07:16:07.421Z,47.60
2023-01-29T07:16:49.506Z,46.10
2023-01-29T07:17:31.411Z,48.05
2023-01-29T07:18:13.205Z,44.17
2023-01-29T07:18:55.030Z,47.45
2023-01-29T07:19:36.939Z,45.83
2023-01-29T07:20:18.932Z,44.78
2023-01-29T07:21:08.410Z,41.20
2023-01-29T07:21:52.552Z,44.63
2023-01-29T07:22:34.326Z,46.75
2023-01-29T07:23:16.621Z,46.38
2023-01-29T07:23:58.824Z,47.90
2023-01-29T07:24:40.566Z,42.80
2023-01-29T07:25:22.556Z,46.13
2023-01-29T07:26:05.854Z,43.88
2023-01-29T07:26:47.840Z,46.00
2023-01-29T07:27:29.873Z,45.05
2023-01-29T07:28:11.859Z,45.20
2023-01-29T07:28:53.637Z,47.28
2023-01-29T07:29:35.402Z,45.33
2023-01-29T07:30:18.302Z,46.42
2023-01-29T07:31:00.524Z,47.42
2023-01-29T07:31:42.573Z,49.47
2023-01-29T07:32:24.574Z,45.65
2023-01-29T07:33:09.460Z,46.85
2023-01-29T07:33:51.471Z,49.15
2023-01-29T07:34:35.613Z,46.00
2023-01-29T07:35:17.502Z,40.70
2023-01-29T07:35:59.528Z,43.58
2023-01-29T07:36:41.551Z,42.63
2023-01-29T07:37:25.701Z,44.30
2023-01-29T07:38:08.795Z,43.15
2023-01-29T07:38:51.535Z,44.40
2023-01-29T07:39:36.206Z,45.85
2023-01-29T07:40:18.714Z,45.55
2023-01-29T07:41:03.056Z,45.92
2023-01-29T07:41:44.994Z,47.67
2023-01-29T07:42:27.460Z,47.08
2023-01-29T07:43:10.671Z,46.15
2023-01-29T07:43:52.598Z,49.15
2023-01-29T07:44:34.566Z,45.55
2023-01-29T07:45:16.509Z,45.90
2023-01-29T07:46:02.528Z,45.90
2023-01-29T07:46:44.622Z,46.72
2023-01-29T07:47:28.793Z,45.42
2023-01-29T07:48:14.491Z,43.75
2023-01-29T07:48:57.903Z,44.15
2023-01-29T07:49:39.980Z,44.63
2023-01-29T07:50:24.229Z,44.40
2023-01-29T07:51:06.614Z,45.15
2023-01-29T07:51:50.635Z,48.28
2023-01-29T07:52:33.655Z,46.47
2023-01-29T07:53:15.586Z,43.35
2023-01-29T07:53:57.315Z,48.08
2023-01-29T07:54:39.074Z,48.17
2023-01-29T07:55:21.145Z,46.10
2023-01-29T07:56:05.975Z,46.03
2023-01-29T07:56:47.784Z,44.05
2023-01-29T07:57:30.661Z,46.58
2023-01-29T07:58:12.683Z,46.30
2023-01-29T07:58:54.708Z,45.45
2023-01-29T07:59:36.564Z,44.60
2023-01-29T08:00:19.019Z,46.97
2023-01-29T08:01:04.643Z,46.95
2023-01-29T08:01:46.578Z,44.78
2023-01-29T08:02:30.690Z,44.05
2023-01-29T08:03:16.209Z,46.58
2023-01-29T08:03:58.127Z,46.25
2023-01-29T08:04:40.133Z,45.28
2023-01-29T08:05:22.066Z,45.42
2023-01-29T08:06:04.658Z,50.55
2023-01-29T08:06:46.630Z,47.63
2023-01-29T08:07:31.063Z,46.92
2023-01-29T08:08:13.586Z,45.72
2023-01-29T08:08:57.316Z,46.72
2023-01-29T08:09:39.078Z,45.70
2023-01-29T08:10:21.714Z,46.88
2023-01-29T08:11:05.574Z,46.45
2023-01-29T08:11:47.375Z,48.80
2023-01-29T08:12:29.241Z,49.85
2023-01-29T08:13:11.042Z,48.75
2023-01-29T08:13:54.405Z,50.28
2023-01-29T08:14:36.220Z,47.85
2023-01-29T08:15:18.222Z,43.80
2023-01-29T08:16:01.971Z,44.97
2023-01-29T08:16:43.856Z,48.85
2023-01-29T08:17:25.786Z,45.97
2023-01-29T08:18:07.726Z,45.47
2023-01-29T08:18:49.560Z,47.00
2023-01-29T08:19:32.028Z,43.67
2023-01-29T08:20:13.841Z,47.40
2023-01-29T08:21:02.577Z,48.33
2023-01-29T08:21:44.654Z,44.83
2023-01-29T08:22:26.782Z,48.78
2023-01-29T08:23:15.714Z,46.72
2023-01-29T08:23:57.803Z,44.25
2023-01-29T08:24:53.413Z,43.72
2023-01-29T08:25:41.706Z,47.53
2023-01-29T08:26:25.630Z,46.30
2023-01-29T08:27:07.688Z,46.03
2023-01-29T08:27:49.738Z,50.38
2023-01-29T08:28:31.709Z,49.00
2023-01-29T08:29:13.644Z,49.72
2023-01-29T08:29:57.850Z,49.90
2023-01-29T08:30:39.756Z,49.95
2023-01-29T08:31:21.758Z,47.72
2023-01-29T08:32:05.686Z,49.95
2023-01-29T08:32:47.677Z,49.60
2023-01-29T08:33:38.328Z,51.22
2023-01-29T08:34:20.954Z,48.47
2023-01-29T08:35:02.772Z,46.88
2023-01-29T08:35:50.167Z,46.13
2023-01-29T08:36:33.055Z,46.30
2023-01-29T08:37:15.107Z,45.95
2023-01-29T08:38:03.893Z,47.05
2023-01-29T08:38:45.595Z,45.40
2023-01-29T08:39:27.366Z,46.08
2023-01-29T08:40:10.922Z,46.67
2023-01-29T08:40:52.720Z,49.58
2023-01-29T08:41:34.811Z,49.10
2023-01-29T08:42:17.042Z,48.40
2023-01-29T08:43:09.482Z,45.88
2023-01-29T08:43:51.831Z,50.45
2023-01-29T08:44:34.374Z,48.65
2023-01-29T08:45:16.723Z,50.13
2023-01-29T08:45:58.925Z,45.05
2023-01-29T08:46:40.866Z,44.10
2023-01-29T08:47:22.688Z,47.13
2023-01-29T08:48:04.848Z,46.50
2023-01-29T08:48:46.868Z,44.55
2023-01-29T08:49:28.776Z,46.25
2023-01-29T08:50:11.204Z,45.53
2023-01-29T08:50:52.980Z,49.55
2023-01-29T08:51:34.854Z,47.00
2023-01-29T08:52:16.836Z,44.83
2023-01-29T08:53:00.802Z,44.70
2023-01-29T08:53:42.673Z,45.50
2023-01-29T08:54:27.179Z,46.40
2023-01-29T08:55:09.120Z,42.03
2023-01-29T08:55:50.851Z,45.45
2023-01-29T08:56:32.630Z,46.42
2023-01-29T08:57:14.330Z,46.70
2023-01-29T08:57:59.252Z,48.85
2023-01-29T08:58:40.998Z,44.40
2023-01-29T08:59:22.957Z,44.88
2023-01-29T09:00:06.916Z,45.55
2023-01-29T09:00:51.247Z,46.10
2023-01-29T09:01:33.039Z,43.80
2023-01-29T09:02:14.971Z,47.03
2023-01-29T09:02:57.090Z,46.20
2023-01-29T09:03:45.761Z,47.30
2023-01-29T09:04:27.479Z,47.35
2023-01-29T09:05:10.177Z,44.33
2023-01-29T09:05:51.990Z,44.25
2023-01-29T09:06:36.080Z,44.60
2023-01-29T09:07:17.801Z,42.78
2023-01-29T09:07:59.936Z,42.90
2023-01-29T09:08:42.724Z,45.00
2023-01-29T09:09:26.666Z,43.20
2023-01-29T09:10:09.165Z,44.80
2023-01-29T09:10:50.911Z,45.75
2023-01-29T09:11:35.088Z,43.67
2023-01-29T09:12:17.113Z,45.80
2023-01-29T09:12:58.980Z,47.10
2023-01-29T09:13:40.901Z,46.40
2023-01-29T09:14:22.757Z,48.45
2023-01-29T09:15:04.983Z,46.95
2023-01-29T09:15:46.976Z,45.45
2023-01-29T09:16:31.036Z,43.28
2023-01-29T09:17:12.840Z,49.03
2023-01-29T09:17:54.964Z,46.22
2023-01-29T09:18:37.084Z,43.97
2023-01-29T09:19:21.395Z,45.00
2023-01-29T09:20:06.980Z,45.53
2023-01-29T09:20:51.219Z,45.17
2023-01-29T09:21:32.893Z,44.65
2023-01-29T09:22:14.935Z,39.92
2023-01-29T09:22:59.075Z,42.45
2023-01-29T09:23:40.953Z,42.50
2023-01-29T09:24:22.661Z,44.22
2023-01-29T09:25:05.013Z,43.28
2023-01-29T09:25:46.981Z,42.92
2023-01-29T09:26:28.766Z,41.78
2023-01-29T09:27:10.952Z,41.72
2023-01-29T09:27:54.360Z,43.72
2023-01-29T09:28:36.222Z,47.00
2023-01-29T09:29:17.958Z,44.60
2023-01-29T09:30:00.064Z,46.42
2023-01-29T09:30:42.023Z,45.63
2023-01-29T09:31:24.161Z,41.30
2023-01-29T09:32:06.896Z,42.97
2023-01-29T09:32:53.537Z,44.00
2023-01-29T09:33:37.951Z,44.90
2023-01-29T09:34:22.251Z,45.42
2023-01-29T09:35:04.313Z,42.67
2023-01-29T09:35:47.152Z,42.20
2023-01-29T09:36:29.362Z,43.72
2023-01-29T09:37:11.725Z,45.25
2023-01-29T09:37:53.522Z,44.65
2023-01-29T09:38:38.173Z,45.90
2023-01-29T09:39:20.109Z,43.58
2023-01-29T09:40:01.904Z,44.85
2023-01-29T09:40:52.074Z,45.30
2023-01-29T09:41:49.360Z,46.58
2023-01-29T09:42:49.532Z,47.45
2023-01-29T09:43:51.973Z,43.97
2023-01-29T09:44:52.032Z,45.58
2023-01-29T09:45:34.244Z,46.58
2023-01-29T09:46:21.323Z,44.05
2023-01-29T09:47:06.002Z,45.50
2023-01-29T09:47:48.810Z,47.42
2023-01-29T09:48:34.322Z,46.05
2023-01-29T09:49:28.106Z,44.45
2023-01-29T09:50:26.146Z,40.78
2023-01-29T09:51:17.111Z,41.85
2023-01-29T09:52:08.187Z,44.55
2023-01-29T09:52:57.941Z,43.83
2023-01-29T09:53:43.355Z,45.50
2023-01-29T09:54:30.183Z,44.50
2023-01-29T09:55:33.230Z,48.67
2023-01-29T09:56:20.508Z,46.00
2023-01-29T09:57:02.537Z,45.50
2023-01-29T09:58:25.221Z,46.63
2023-01-29T09:59:11.923Z,44.10
2023-01-29T09:59:56.897Z,45.05
2023-01-29T10:00:52.205Z,49.40
2023-01-29T10:01:55.507Z,47.13
2023-01-29T10:02:55.303Z,52.90
2023-01-29T10:03:57.882Z,48.58
2023-01-29T10:05:11.913Z,47.22